sensor_id;sensor_type;location;lat;lon;timestamp;P1;durP1;ratioP1;P2;durP2;ratioP2
68310;SDS011;55157;51.036;17.058;2022-07-29T00:00:06;19.38;;;4.35;;
68310;SDS011;55157;51.036;17.058;2022-07-29T00:02:32;11.70;;;3.67;;
68310;SDS011;55157;51.036;17.058;2022-07-29T00:04:57;8.07;;;3.83;;
68310;SDS011;55157;51.036;17.058;2022-07-29T00:07:22;11.68;;;3.38;;
68310;SDS011;55157;51.036;17.058;2022-07-29T00:09:48;13.05;;;3.83;;
68310;SDS011;55157;51.036;17.058;2022-07-29T00:12:13;15.05;;;3.85;;
68310;SDS011;55157;51.036;17.058;2022-07-29T00:14:38;8.02;;;3.60;;
68310;SDS011;55157;51.036;17.058;2022-07-29T00:17:05;8.85;;;3.60;;
68310;SDS011;55157;51.036;17.058;2022-07-29T00:19:30;10.30;;;3.83;;
68310;SDS011;55157;51.036;17.058;2022-07-29T00:21:55;12.27;;;5.88;;
68310;SDS011;55157;51.036;17.058;2022-07-29T00:24:21;5.53;;;3.17;;
68310;SDS011;55157;51.036;17.058;2022-07-29T00:26:46;14.70;;;3.45;;
68310;SDS011;55157;51.036;17.058;2022-07-29T00:29:11;10.48;;;3.65;;
68310;SDS011;55157;51.036;17.058;2022-07-29T00:31:37;10.15;;;3.38;;
68310;SDS011;55157;51.036;17.058;2022-07-29T00:34:03;7.95;;;4.30;;
68310;SDS011;55157;51.036;17.058;2022-07-29T00:36:29;14.15;;;3.67;;
68310;SDS011;55157;51.036;17.058;2022-07-29T00:38:54;9.73;;;3.10;;
68310;SDS011;55157;51.036;17.058;2022-07-29T00:41:19;14.40;;;4.00;;
68310;SDS011;55157;51.036;17.058;2022-07-29T00:43:45;14.52;;;3.92;;
68310;SDS011;55157;51.036;17.058;2022-07-29T00:46:11;10.73;;;3.35;;
68310;SDS011;55157;51.036;17.058;2022-07-29T00:48:36;8.30;;;3.47;;
68310;SDS011;55157;51.036;17.058;2022-07-29T00:51:03;353.17;;;29.38;;
68310;SDS011;55157;51.036;17.058;2022-07-29T00:53:29;363.35;;;28.50;;
68310;SDS011;55157;51.036;17.058;2022-07-29T00:55:54;129.73;;;13.57;;
68310;SDS011;55157;51.036;17.058;2022-07-29T00:58:20;112.13;;;13.48;;
68310;SDS011;55157;51.036;17.058;2022-07-29T01:00:45;78.20;;;10.05;;
68310;SDS011;55157;51.036;17.058;2022-07-29T01:03:10;59.15;;;8.52;;
68310;SDS011;55157;51.036;17.058;2022-07-29T01:05:36;34.22;;;5.68;;
68310;SDS011;55157;51.036;17.058;2022-07-29T01:08:02;38.42;;;5.38;;
68310;SDS011;55157;51.036;17.058;2022-07-29T01:10:28;24.45;;;5.22;;
68310;SDS011;55157;51.036;17.058;2022-07-29T01:12:54;20.02;;;4.47;;
68310;SDS011;55157;51.036;17.058;2022-07-29T01:15:20;15.82;;;3.70;;
68310;SDS011;55157;51.036;17.058;2022-07-29T01:17:46;17.40;;;3.78;;
68310;SDS011;55157;51.036;17.058;2022-07-29T01:20:13;8.50;;;3.90;;
68310;SDS011;55157;51.036;17.058;2022-07-29T01:25:32;11.70;;;3.25;;
68310;SDS011;55157;51.036;17.058;2022-07-29T01:28:13;11.55;;;3.75;;
68310;SDS011;55157;51.036;17.058;2022-07-29T01:30:43;14.32;;;4.15;;
68310;SDS011;55157;51.036;17.058;2022-07-29T01:33:10;9.38;;;3.42;;
68310;SDS011;55157;51.036;17.058;2022-07-29T01:35:38;7.40;;;3.67;;
68310;SDS011;55157;51.036;17.058;2022-07-29T01:38:05;9.38;;;3.92;;
68310;SDS011;55157;51.036;17.058;2022-07-29T01:40:33;9.00;;;3.47;;
68310;SDS011;55157;51.036;17.058;2022-07-29T01:42:59;20.55;;;4.20;;
68310;SDS011;55157;51.036;17.058;2022-07-29T01:45:30;7.45;;;3.47;;
68310;SDS011;55157;51.036;17.058;2022-07-29T01:47:58;10.05;;;3.58;;
68310;SDS011;55157;51.036;17.058;2022-07-29T01:50:28;5.65;;;3.53;;
68310;SDS011;55157;51.036;17.058;2022-07-29T01:52:56;11.80;;;3.30;;
68310;SDS011;55157;51.036;17.058;2022-07-29T01:55:22;12.40;;;3.33;;
68310;SDS011;55157;51.036;17.058;2022-07-29T01:57:49;8.18;;;3.60;;
68310;SDS011;55157;51.036;17.058;2022-07-29T02:00:14;8.88;;;3.13;;
68310;SDS011;55157;51.036;17.058;2022-07-29T02:02:41;11.25;;;3.28;;
68310;SDS011;55157;51.036;17.058;2022-07-29T02:05:09;7.95;;;3.78;;
68310;SDS011;55157;51.036;17.058;2022-07-29T02:07:35;9.35;;;2.97;;
68310;SDS011;55157;51.036;17.058;2022-07-29T02:10:02;6.40;;;3.53;;
68310;SDS011;55157;51.036;17.058;2022-07-29T02:12:28;6.97;;;3.70;;
68310;SDS011;55157;51.036;17.058;2022-07-29T02:14:54;8.30;;;3.80;;
68310;SDS011;55157;51.036;17.058;2022-07-29T02:17:22;7.55;;;3.70;;
68310;SDS011;55157;51.036;17.058;2022-07-29T02:19:48;10.30;;;4.57;;
68310;SDS011;55157;51.036;17.058;2022-07-29T02:22:15;15.25;;;3.47;;
68310;SDS011;55157;51.036;17.058;2022-07-29T02:24:41;12.27;;;3.88;;
68310;SDS011;55157;51.036;17.058;2022-07-29T02:27:07;17.35;;;3.60;;
68310;SDS011;55157;51.036;17.058;2022-07-29T02:29:33;10.25;;;3.42;;
68310;SDS011;55157;51.036;17.058;2022-07-29T02:31:59;8.32;;;3.90;;
68310;SDS011;55157;51.036;17.058;2022-07-29T02:34:25;15.15;;;3.10;;
68310;SDS011;55157;51.036;17.058;2022-07-29T02:36:52;6.45;;;3.92;;
68310;SDS011;55157;51.036;17.058;2022-07-29T02:39:19;13.52;;;4.28;;
68310;SDS011;55157;51.036;17.058;2022-07-29T02:41:47;10.63;;;3.40;;
68310;SDS011;55157;51.036;17.058;2022-07-29T02:44:13;11.18;;;4.43;;
68310;SDS011;55157;51.036;17.058;2022-07-29T02:46:41;7.55;;;3.92;;
68310;SDS011;55157;51.036;17.058;2022-07-29T02:49:09;11.50;;;3.67;;
68310;SDS011;55157;51.036;17.058;2022-07-29T02:51:37;13.63;;;4.65;;
68310;SDS011;55157;51.036;17.058;2022-07-29T02:54:06;10.77;;;3.30;;
68310;SDS011;55157;51.036;17.058;2022-07-29T02:56:33;6.88;;;3.17;;
68310;SDS011;55157;51.036;17.058;2022-07-29T02:58:58;12.48;;;3.47;;
68310;SDS011;55157;51.036;17.058;2022-07-29T03:01:25;9.70;;;3.92;;
68310;SDS011;55157;51.036;17.058;2022-07-29T03:03:52;7.95;;;3.33;;
68310;SDS011;55157;51.036;17.058;2022-07-29T03:06:19;10.10;;;3.60;;
68310;SDS011;55157;51.036;17.058;2022-07-29T03:08:45;8.27;;;3.33;;
68310;SDS011;55157;51.036;17.058;2022-07-29T03:11:11;10.52;;;4.05;;
68310;SDS011;55157;51.036;17.058;2022-07-29T03:13:38;9.18;;;3.70;;
68310;SDS011;55157;51.036;17.058;2022-07-29T03:16:04;23.45;;;3.80;;
68310;SDS011;55157;51.036;17.058;2022-07-29T03:18:30;38.85;;;5.68;;
68310;SDS011;55157;51.036;17.058;2022-07-29T03:20:55;50.63;;;5.85;;
68310;SDS011;55157;51.036;17.058;2022-07-29T03:23:21;19.98;;;4.45;;
68310;SDS011;55157;51.036;17.058;2022-07-29T03:25:47;22.45;;;3.85;;
68310;SDS011;55157;51.036;17.058;2022-07-29T03:28:12;33.83;;;6.32;;
68310;SDS011;55157;51.036;17.058;2022-07-29T03:30:39;17.98;;;4.50;;
68310;SDS011;55157;51.036;17.058;2022-07-29T03:33:04;14.88;;;5.72;;
68310;SDS011;55157;51.036;17.058;2022-07-29T03:35:29;12.63;;;4.53;;
68310;SDS011;55157;51.036;17.058;2022-07-29T03:37:55;8.68;;;3.78;;
68310;SDS011;55157;51.036;17.058;2022-07-29T03:40:21;13.75;;;3.95;;
68310;SDS011;55157;51.036;17.058;2022-07-29T03:42:47;11.13;;;3.97;;
68310;SDS011;55157;51.036;17.058;2022-07-29T03:45:15;11.38;;;4.22;;
68310;SDS011;55157;51.036;17.058;2022-07-29T03:47:45;7.50;;;3.67;;
68310;SDS011;55157;51.036;17.058;2022-07-29T03:50:12;11.45;;;3.63;;
68310;SDS011;55157;51.036;17.058;2022-07-29T03:52:38;13.70;;;3.53;;
68310;SDS011;55157;51.036;17.058;2022-07-29T03:55:04;8.07;;;3.75;;
68310;SDS011;55157;51.036;17.058;2022-07-29T03:57:30;17.63;;;4.40;;
68310;SDS011;55157;51.036;17.058;2022-07-29T03:59:55;10.65;;;3.60;;
68310;SDS011;55157;51.036;17.058;2022-07-29T04:02:21;12.70;;;4.47;;
68310;SDS011;55157;51.036;17.058;2022-07-29T04:04:48;18.10;;;4.30;;
68310;SDS011;55157;51.036;17.058;2022-07-29T04:07:14;7.18;;;3.53;;
68310;SDS011;55157;51.036;17.058;2022-07-29T04:09:39;16.05;;;3.95;;
68310;SDS011;55157;51.036;17.058;2022-07-29T04:12:05;11.63;;;3.67;;
68310;SDS011;55157;51.036;17.058;2022-07-29T04:14:30;16.48;;;3.50;;
68310;SDS011;55157;51.036;17.058;2022-07-29T04:16:55;10.75;;;3.50;;
68310;SDS011;55157;51.036;17.058;2022-07-29T04:19:21;9.13;;;3.30;;
68310;SDS011;55157;51.036;17.058;2022-07-29T04:21:47;8.32;;;3.55;;
68310;SDS011;55157;51.036;17.058;2022-07-29T04:24:13;7.68;;;3.67;;
68310;SDS011;55157;51.036;17.058;2022-07-29T04:26:38;13.85;;;3.70;;
68310;SDS011;55157;51.036;17.058;2022-07-29T04:29:03;18.08;;;3.85;;
68310;SDS011;55157;51.036;17.058;2022-07-29T04:31:28;8.05;;;3.60;;
68310;SDS011;55157;51.036;17.058;2022-07-29T04:33:54;20.42;;;4.88;;
68310;SDS011;55157;51.036;17.058;2022-07-29T04:36:19;9.95;;;3.67;;
68310;SDS011;55157;51.036;17.058;2022-07-29T04:38:45;10.35;;;3.40;;
68310;SDS011;55157;51.036;17.058;2022-07-29T04:41:11;11.10;;;3.25;;
68310;SDS011;55157;51.036;17.058;2022-07-29T04:43:36;14.25;;;3.78;;
68310;SDS011;55157;51.036;17.058;2022-07-29T04:46:01;9.48;;;3.75;;
68310;SDS011;55157;51.036;17.058;2022-07-29T04:48:27;9.80;;;3.50;;
68310;SDS011;55157;51.036;17.058;2022-07-29T04:50:52;11.30;;;3.58;;
68310;SDS011;55157;51.036;17.058;2022-07-29T04:53:17;10.13;;;3.92;;
68310;SDS011;55157;51.036;17.058;2022-07-29T04:55:44;13.85;;;3.95;;
68310;SDS011;55157;51.036;17.058;2022-07-29T04:58:09;9.10;;;3.10;;
68310;SDS011;55157;51.036;17.058;2022-07-29T05:00:35;12.35;;;3.38;;
68310;SDS011;55157;51.036;17.058;2022-07-29T05:03:00;9.50;;;3.10;;
68310;SDS011;55157;51.036;17.058;2022-07-29T05:05:25;18.45;;;3.25;;
68310;SDS011;55157;51.036;17.058;2022-07-29T05:07:51;12.07;;;3.40;;
68310;SDS011;55157;51.036;17.058;2022-07-29T05:10:16;7.93;;;3.00;;
68310;SDS011;55157;51.036;17.058;2022-07-29T05:12:42;8.65;;;3.13;;
68310;SDS011;55157;51.036;17.058;2022-07-29T05:15:08;11.75;;;3.33;;
68310;SDS011;55157;51.036;17.058;2022-07-29T05:17:34;19.10;;;3.28;;
68310;SDS011;55157;51.036;17.058;2022-07-29T05:19:59;9.00;;;3.40;;
68310;SDS011;55157;51.036;17.058;2022-07-29T05:22:24;19.85;;;3.33;;
68310;SDS011;55157;51.036;17.058;2022-07-29T05:24:49;13.10;;;3.42;;
68310;SDS011;55157;51.036;17.058;2022-07-29T05:27:14;24.27;;;3.50;;
68310;SDS011;55157;51.036;17.058;2022-07-29T05:29:41;25.10;;;5.00;;
68310;SDS011;55157;51.036;17.058;2022-07-29T05:32:06;10.18;;;3.15;;
68310;SDS011;55157;51.036;17.058;2022-07-29T05:34:32;10.18;;;3.42;;
68310;SDS011;55157;51.036;17.058;2022-07-29T05:36:57;8.38;;;2.72;;
68310;SDS011;55157;51.036;17.058;2022-07-29T05:39:22;7.75;;;2.72;;
68310;SDS011;55157;51.036;17.058;2022-07-29T05:41:47;10.02;;;2.60;;
68310;SDS011;55157;51.036;17.058;2022-07-29T05:44:13;8.98;;;2.92;;
68310;SDS011;55157;51.036;17.058;2022-07-29T05:46:39;6.20;;;2.97;;
68310;SDS011;55157;51.036;17.058;2022-07-29T05:49:05;11.43;;;2.95;;
68310;SDS011;55157;51.036;17.058;2022-07-29T05:51:30;15.55;;;3.80;;
68310;SDS011;55157;51.036;17.058;2022-07-29T05:53:55;9.07;;;3.40;;
68310;SDS011;55157;51.036;17.058;2022-07-29T05:56:21;11.02;;;3.30;;
68310;SDS011;55157;51.036;17.058;2022-07-29T05:58:46;7.28;;;3.53;;
68310;SDS011;55157;51.036;17.058;2022-07-29T06:01:11;14.73;;;4.00;;
68310;SDS011;55157;51.036;17.058;2022-07-29T06:03:38;11.40;;;3.65;;
68310;SDS011;55157;51.036;17.058;2022-07-29T06:06:03;6.88;;;3.70;;
68310;SDS011;55157;51.036;17.058;2022-07-29T06:08:28;10.98;;;3.53;;
68310;SDS011;55157;51.036;17.058;2022-07-29T06:10:53;14.00;;;3.15;;
68310;SDS011;55157;51.036;17.058;2022-07-29T06:13:19;22.73;;;3.67;;
68310;SDS011;55157;51.036;17.058;2022-07-29T06:15:44;12.98;;;3.10;;
68310;SDS011;55157;51.036;17.058;2022-07-29T06:18:09;15.27;;;2.70;;
68310;SDS011;55157;51.036;17.058;2022-07-29T06:20:36;12.18;;;3.00;;
68310;SDS011;55157;51.036;17.058;2022-07-29T06:23:02;10.38;;;2.65;;
68310;SDS011;55157;51.036;17.058;2022-07-29T06:25:28;10.05;;;2.83;;
68310;SDS011;55157;51.036;17.058;2022-07-29T06:27:53;6.50;;;2.40;;
68310;SDS011;55157;51.036;17.058;2022-07-29T06:30:18;13.23;;;2.75;;
68310;SDS011;55157;51.036;17.058;2022-07-29T06:32:43;9.40;;;3.00;;
68310;SDS011;55157;51.036;17.058;2022-07-29T06:35:09;6.80;;;2.13;;
68310;SDS011;55157;51.036;17.058;2022-07-29T06:37:35;15.18;;;3.03;;
68310;SDS011;55157;51.036;17.058;2022-07-29T06:40:01;13.50;;;2.97;;
68310;SDS011;55157;51.036;17.058;2022-07-29T06:42:26;7.13;;;2.30;;
68310;SDS011;55157;51.036;17.058;2022-07-29T06:44:52;8.27;;;2.00;;
68310;SDS011;55157;51.036;17.058;2022-07-29T06:47:17;6.95;;;2.15;;
68310;SDS011;55157;51.036;17.058;2022-07-29T06:49:42;13.93;;;1.85;;
68310;SDS011;55157;51.036;17.058;2022-07-29T06:52:07;19.05;;;1.98;;
68310;SDS011;55157;51.036;17.058;2022-07-29T06:54:34;3.83;;;1.58;;
68310;SDS011;55157;51.036;17.058;2022-07-29T06:56:59;9.60;;;2.30;;
68310;SDS011;55157;51.036;17.058;2022-07-29T06:59:24;8.65;;;2.17;;
68310;SDS011;55157;51.036;17.058;2022-07-29T07:01:49;8.43;;;2.10;;
68310;SDS011;55157;51.036;17.058;2022-07-29T07:04:15;18.48;;;2.28;;
68310;SDS011;55157;51.036;17.058;2022-07-29T07:06:40;5.93;;;2.17;;
68310;SDS011;55157;51.036;17.058;2022-07-29T07:09:05;6.32;;;2.30;;
68310;SDS011;55157;51.036;17.058;2022-07-29T07:11:32;14.18;;;1.95;;
68310;SDS011;55157;51.036;17.058;2022-07-29T07:13:57;15.05;;;2.75;;
68310;SDS011;55157;51.036;17.058;2022-07-29T07:16:22;13.20;;;2.33;;
68310;SDS011;55157;51.036;17.058;2022-07-29T07:18:48;12.20;;;2.25;;
68310;SDS011;55157;51.036;17.058;2022-07-29T07:21:13;3.20;;;1.60;;
68310;SDS011;55157;51.036;17.058;2022-07-29T07:23:38;9.65;;;2.13;;
68310;SDS011;55157;51.036;17.058;2022-07-29T07:26:04;6.35;;;1.80;;
68310;SDS011;55157;51.036;17.058;2022-07-29T07:28:30;5.55;;;1.90;;
68310;SDS011;55157;51.036;17.058;2022-07-29T07:30:55;4.88;;;1.98;;
68310;SDS011;55157;51.036;17.058;2022-07-29T07:33:21;12.13;;;1.53;;
68310;SDS011;55157;51.036;17.058;2022-07-29T07:35:46;3.55;;;1.90;;
68310;SDS011;55157;51.036;17.058;2022-07-29T07:38:11;6.20;;;1.85;;
68310;SDS011;55157;51.036;17.058;2022-07-29T07:40:37;12.02;;;2.30;;
68310;SDS011;55157;51.036;17.058;2022-07-29T07:43:02;6.90;;;2.08;;
68310;SDS011;55157;51.036;17.058;2022-07-29T07:45:29;7.65;;;1.70;;
68310;SDS011;55157;51.036;17.058;2022-07-29T07:47:54;6.63;;;2.20;;
68310;SDS011;55157;51.036;17.058;2022-07-29T07:50:19;4.35;;;1.95;;
68310;SDS011;55157;51.036;17.058;2022-07-29T07:52:48;8.07;;;1.70;;
68310;SDS011;55157;51.036;17.058;2022-07-29T07:55:13;9.77;;;1.85;;
68310;SDS011;55157;51.036;17.058;2022-07-29T07:57:39;6.78;;;2.08;;
68310;SDS011;55157;51.036;17.058;2022-07-29T08:00:05;8.23;;;2.08;;
68310;SDS011;55157;51.036;17.058;2022-07-29T08:02:32;14.98;;;1.95;;
68310;SDS011;55157;51.036;17.058;2022-07-29T08:04:57;18.40;;;3.03;;
68310;SDS011;55157;51.036;17.058;2022-07-29T08:07:22;8.00;;;1.85;;
68310;SDS011;55157;51.036;17.058;2022-07-29T08:09:47;14.25;;;2.35;;
68310;SDS011;55157;51.036;17.058;2022-07-29T08:12:13;3.40;;;1.50;;
68310;SDS011;55157;51.036;17.058;2022-07-29T08:14:38;13.40;;;2.35;;
68310;SDS011;55157;51.036;17.058;2022-07-29T08:17:03;4.67;;;2.10;;
68310;SDS011;55157;51.036;17.058;2022-07-29T08:19:30;20.33;;;2.10;;
68310;SDS011;55157;51.036;17.058;2022-07-29T08:21:55;13.23;;;2.10;;
68310;SDS011;55157;51.036;17.058;2022-07-29T08:24:21;9.48;;;1.85;;
68310;SDS011;55157;51.036;17.058;2022-07-29T08:26:46;6.53;;;2.40;;
68310;SDS011;55157;51.036;17.058;2022-07-29T08:29:12;12.70;;;2.22;;
68310;SDS011;55157;51.036;17.058;2022-07-29T08:31:37;8.57;;;2.08;;
68310;SDS011;55157;51.036;17.058;2022-07-29T08:34:02;5.63;;;2.00;;
68310;SDS011;55157;51.036;17.058;2022-07-29T08:36:29;19.13;;;2.00;;
68310;SDS011;55157;51.036;17.058;2022-07-29T08:38:55;10.73;;;2.13;;
68310;SDS011;55157;51.036;17.058;2022-07-29T08:41:20;4.10;;;1.83;;
68310;SDS011;55157;51.036;17.058;2022-07-29T08:43:46;7.45;;;3.05;;
68310;SDS011;55157;51.036;17.058;2022-07-29T08:46:11;9.43;;;1.73;;
68310;SDS011;55157;51.036;17.058;2022-07-29T08:48:36;10.15;;;2.10;;
68310;SDS011;55157;51.036;17.058;2022-07-29T08:51:02;11.00;;;1.70;;
68310;SDS011;55157;51.036;17.058;2022-07-29T08:53:30;5.68;;;1.95;;
68310;SDS011;55157;51.036;17.058;2022-07-29T08:55:55;7.38;;;1.60;;
68310;SDS011;55157;51.036;17.058;2022-07-29T08:58:20;9.07;;;1.77;;
68310;SDS011;55157;51.036;17.058;2022-07-29T09:00:47;12.98;;;1.70;;
68310;SDS011;55157;51.036;17.058;2022-07-29T09:03:15;13.02;;;1.90;;
68310;SDS011;55157;51.036;17.058;2022-07-29T09:05:41;19.15;;;2.75;;
68310;SDS011;55157;51.036;17.058;2022-07-29T09:08:07;9.70;;;1.98;;
68310;SDS011;55157;51.036;17.058;2022-07-29T09:10:35;9.35;;;2.15;;
68310;SDS011;55157;51.036;17.058;2022-07-29T09:13:01;8.45;;;1.65;;
68310;SDS011;55157;51.036;17.058;2022-07-29T09:15:26;7.90;;;2.20;;
68310;SDS011;55157;51.036;17.058;2022-07-29T09:17:52;2.85;;;1.50;;
68310;SDS011;55157;51.036;17.058;2022-07-29T09:20:17;3.10;;;1.85;;
68310;SDS011;55157;51.036;17.058;2022-07-29T09:22:43;16.70;;;1.80;;
68310;SDS011;55157;51.036;17.058;2022-07-29T09:25:08;7.10;;;1.70;;
68310;SDS011;55157;51.036;17.058;2022-07-29T09:27:35;13.98;;;2.35;;
68310;SDS011;55157;51.036;17.058;2022-07-29T09:30:01;9.35;;;2.00;;
68310;SDS011;55157;51.036;17.058;2022-07-29T09:32:27;9.80;;;1.83;;
68310;SDS011;55157;51.036;17.058;2022-07-29T09:37:33;4.95;;;2.38;;
68310;SDS011;55157;51.036;17.058;2022-07-29T09:39:58;42.47;;;4.43;;
68310;SDS011;55157;51.036;17.058;2022-07-29T09:42:27;6.97;;;1.83;;
68310;SDS011;55157;51.036;17.058;2022-07-29T09:44:55;15.30;;;2.63;;
68310;SDS011;55157;51.036;17.058;2022-07-29T09:47:20;6.85;;;2.33;;
68310;SDS011;55157;51.036;17.058;2022-07-29T09:49:53;5.25;;;2.25;;
68310;SDS011;55157;51.036;17.058;2022-07-29T09:52:18;11.35;;;2.03;;
68310;SDS011;55157;51.036;17.058;2022-07-29T09:54:44;7.05;;;2.10;;
68310;SDS011;55157;51.036;17.058;2022-07-29T09:57:21;9.52;;;2.42;;
68310;SDS011;55157;51.036;17.058;2022-07-29T09:59:49;3.97;;;1.55;;
68310;SDS011;55157;51.036;17.058;2022-07-29T10:02:21;14.18;;;2.40;;
68310;SDS011;55157;51.036;17.058;2022-07-29T10:04:47;11.40;;;2.33;;
68310;SDS011;55157;51.036;17.058;2022-07-29T10:07:12;5.75;;;1.80;;
68310;SDS011;55157;51.036;17.058;2022-07-29T10:09:37;7.63;;;1.97;;
68310;SDS011;55157;51.036;17.058;2022-07-29T10:12:06;11.30;;;1.80;;
68310;SDS011;55157;51.036;17.058;2022-07-29T10:14:33;7.38;;;2.13;;
68310;SDS011;55157;51.036;17.058;2022-07-29T10:16:58;7.07;;;2.10;;
68310;SDS011;55157;51.036;17.058;2022-07-29T10:19:25;8.75;;;2.08;;
68310;SDS011;55157;51.036;17.058;2022-07-29T10:21:51;8.93;;;2.10;;
68310;SDS011;55157;51.036;17.058;2022-07-29T10:24:16;10.52;;;2.08;;
68310;SDS011;55157;51.036;17.058;2022-07-29T10:26:42;7.20;;;1.75;;
68310;SDS011;55157;51.036;17.058;2022-07-29T10:29:07;7.10;;;2.13;;
68310;SDS011;55157;51.036;17.058;2022-07-29T10:31:34;15.90;;;2.93;;
68310;SDS011;55157;51.036;17.058;2022-07-29T10:34:04;5.03;;;1.98;;
68310;SDS011;55157;51.036;17.058;2022-07-29T10:36:38;6.03;;;1.98;;
68310;SDS011;55157;51.036;17.058;2022-07-29T10:39:08;8.45;;;1.90;;
68310;SDS011;55157;51.036;17.058;2022-07-29T10:41:47;6.13;;;2.25;;
68310;SDS011;55157;51.036;17.058;2022-07-29T10:44:16;9.13;;;2.25;;
68310;SDS011;55157;51.036;17.058;2022-07-29T10:46:42;13.73;;;2.08;;
68310;SDS011;55157;51.036;17.058;2022-07-29T10:49:08;7.72;;;2.47;;
68310;SDS011;55157;51.036;17.058;2022-07-29T10:54:18;9.07;;;2.63;;
68310;SDS011;55157;51.036;17.058;2022-07-29T10:56:43;17.98;;;3.20;;
68310;SDS011;55157;51.036;17.058;2022-07-29T10:59:24;12.48;;;1.95;;
68310;SDS011;55157;51.036;17.058;2022-07-29T11:01:49;10.60;;;1.85;;
68310;SDS011;55157;51.036;17.058;2022-07-29T11:04:15;8.20;;;2.10;;
68310;SDS011;55157;51.036;17.058;2022-07-29T11:09:25;8.13;;;1.90;;
68310;SDS011;55157;51.036;17.058;2022-07-29T11:11:51;7.82;;;2.42;;
68310;SDS011;55157;51.036;17.058;2022-07-29T11:14:16;9.45;;;2.40;;
68310;SDS011;55157;51.036;17.058;2022-07-29T11:16:58;7.60;;;2.47;;
68310;SDS011;55157;51.036;17.058;2022-07-29T11:19:23;5.57;;;2.03;;
68310;SDS011;55157;51.036;17.058;2022-07-29T11:21:49;12.67;;;2.10;;
68310;SDS011;55157;51.036;17.058;2022-07-29T11:24:14;15.38;;;2.55;;
68310;SDS011;55157;51.036;17.058;2022-07-29T11:26:41;3.70;;;1.95;;
68310;SDS011;55157;51.036;17.058;2022-07-29T11:29:13;5.60;;;2.10;;
68310;SDS011;55157;51.036;17.058;2022-07-29T11:31:41;16.05;;;2.85;;
68310;SDS011;55157;51.036;17.058;2022-07-29T11:34:17;8.77;;;2.03;;
68310;SDS011;55157;51.036;17.058;2022-07-29T11:39:25;11.68;;;2.17;;
68310;SDS011;55157;51.036;17.058;2022-07-29T11:41:52;14.45;;;1.77;;
68310;SDS011;55157;51.036;17.058;2022-07-29T11:44:17;12.15;;;2.33;;
68310;SDS011;55157;51.036;17.058;2022-07-29T11:46:45;8.60;;;2.00;;
68310;SDS011;55157;51.036;17.058;2022-07-29T11:49:11;7.70;;;2.15;;
68310;SDS011;55157;51.036;17.058;2022-07-29T11:51:36;4.50;;;1.85;;
68310;SDS011;55157;51.036;17.058;2022-07-29T11:54:01;7.25;;;2.03;;
68310;SDS011;55157;51.036;17.058;2022-07-29T11:56:27;8.00;;;2.15;;
68310;SDS011;55157;51.036;17.058;2022-07-29T11:59:03;4.05;;;1.95;;
68310;SDS011;55157;51.036;17.058;2022-07-29T12:01:28;6.50;;;2.05;;
68310;SDS011;55157;51.036;17.058;2022-07-29T12:04:01;7.43;;;1.80;;
68310;SDS011;55157;51.036;17.058;2022-07-29T12:06:27;8.13;;;2.20;;
68310;SDS011;55157;51.036;17.058;2022-07-29T12:08:52;9.83;;;1.90;;
68310;SDS011;55157;51.036;17.058;2022-07-29T12:11:17;9.35;;;1.92;;
68310;SDS011;55157;51.036;17.058;2022-07-29T12:13:43;2.88;;;1.58;;
68310;SDS011;55157;51.036;17.058;2022-07-29T12:16:09;7.70;;;2.33;;
68310;SDS011;55157;51.036;17.058;2022-07-29T12:18:35;22.45;;;2.67;;
68310;SDS011;55157;51.036;17.058;2022-07-29T12:21:00;23.03;;;3.13;;
68310;SDS011;55157;51.036;17.058;2022-07-29T12:23:26;11.38;;;2.45;;
68310;SDS011;55157;51.036;17.058;2022-07-29T12:25:51;7.53;;;2.63;;
68310;SDS011;55157;51.036;17.058;2022-07-29T12:28:16;10.00;;;1.90;;
68310;SDS011;55157;51.036;17.058;2022-07-29T12:30:42;13.87;;;2.47;;
68310;SDS011;55157;51.036;17.058;2022-07-29T12:35:53;21.55;;;3.03;;
68310;SDS011;55157;51.036;17.058;2022-07-29T12:38:18;8.73;;;2.53;;
68310;SDS011;55157;51.036;17.058;2022-07-29T12:40:44;6.13;;;1.92;;
68310;SDS011;55157;51.036;17.058;2022-07-29T12:43:11;12.93;;;2.47;;
68310;SDS011;55157;51.036;17.058;2022-07-29T12:45:37;6.28;;;1.90;;
68310;SDS011;55157;51.036;17.058;2022-07-29T12:48:03;5.82;;;2.00;;
68310;SDS011;55157;51.036;17.058;2022-07-29T12:50:29;5.28;;;2.03;;
68310;SDS011;55157;51.036;17.058;2022-07-29T12:53:03;5.07;;;1.83;;
68310;SDS011;55157;51.036;17.058;2022-07-29T12:55:39;6.10;;;2.20;;
68310;SDS011;55157;51.036;17.058;2022-07-29T12:58:05;14.05;;;2.40;;
68310;SDS011;55157;51.036;17.058;2022-07-29T13:00:30;7.40;;;2.13;;
68310;SDS011;55157;51.036;17.058;2022-07-29T13:02:56;7.53;;;2.08;;
68310;SDS011;55157;51.036;17.058;2022-07-29T13:05:21;17.75;;;3.53;;
68310;SDS011;55157;51.036;17.058;2022-07-29T13:07:46;12.67;;;2.80;;
68310;SDS011;55157;51.036;17.058;2022-07-29T13:10:15;12.90;;;2.53;;
68310;SDS011;55157;51.036;17.058;2022-07-29T13:15:20;7.88;;;2.20;;
68310;SDS011;55157;51.036;17.058;2022-07-29T13:17:45;8.00;;;1.90;;
68310;SDS011;55157;51.036;17.058;2022-07-29T13:20:11;10.73;;;2.10;;
68310;SDS011;55157;51.036;17.058;2022-07-29T13:22:37;6.50;;;2.03;;
68310;SDS011;55157;51.036;17.058;2022-07-29T13:25:02;7.90;;;1.97;;
68310;SDS011;55157;51.036;17.058;2022-07-29T13:27:30;8.27;;;2.13;;
68310;SDS011;55157;51.036;17.058;2022-07-29T13:29:56;14.77;;;2.30;;
68310;SDS011;55157;51.036;17.058;2022-07-29T13:32:21;10.48;;;2.10;;
68310;SDS011;55157;51.036;17.058;2022-07-29T13:34:47;5.95;;;1.85;;
68310;SDS011;55157;51.036;17.058;2022-07-29T13:37:12;7.30;;;2.10;;
68310;SDS011;55157;51.036;17.058;2022-07-29T13:39:37;11.73;;;2.60;;
68310;SDS011;55157;51.036;17.058;2022-07-29T13:42:03;31.00;;;3.30;;
68310;SDS011;55157;51.036;17.058;2022-07-29T13:44:29;11.30;;;2.20;;
68310;SDS011;55157;51.036;17.058;2022-07-29T13:46:55;7.43;;;2.25;;
68310;SDS011;55157;51.036;17.058;2022-07-29T13:49:20;10.73;;;2.23;;
68310;SDS011;55157;51.036;17.058;2022-07-29T13:51:45;8.98;;;2.35;;
68310;SDS011;55157;51.036;17.058;2022-07-29T13:54:11;11.13;;;1.90;;
68310;SDS011;55157;51.036;17.058;2022-07-29T13:56:36;7.43;;;2.43;;
68310;SDS011;55157;51.036;17.058;2022-07-29T13:59:01;12.85;;;1.90;;
68310;SDS011;55157;51.036;17.058;2022-07-29T14:01:28;11.63;;;2.92;;
68310;SDS011;55157;51.036;17.058;2022-07-29T14:03:53;8.90;;;2.30;;
68310;SDS011;55157;51.036;17.058;2022-07-29T14:06:18;6.73;;;1.77;;
68310;SDS011;55157;51.036;17.058;2022-07-29T14:08:44;6.28;;;1.85;;
68310;SDS011;55157;51.036;17.058;2022-07-29T14:11:09;6.97;;;2.20;;
68310;SDS011;55157;51.036;17.058;2022-07-29T14:13:34;18.53;;;2.50;;
68310;SDS011;55157;51.036;17.058;2022-07-29T14:15:59;13.93;;;3.30;;
68310;SDS011;55157;51.036;17.058;2022-07-29T14:18:26;12.47;;;2.27;;
68310;SDS011;55157;51.036;17.058;2022-07-29T14:20:51;9.55;;;2.45;;
68310;SDS011;55157;51.036;17.058;2022-07-29T14:23:17;15.47;;;2.83;;
68310;SDS011;55157;51.036;17.058;2022-07-29T14:25:42;6.80;;;1.95;;
68310;SDS011;55157;51.036;17.058;2022-07-29T14:28:07;14.90;;;2.20;;
68310;SDS011;55157;51.036;17.058;2022-07-29T14:30:33;30.20;;;3.50;;
68310;SDS011;55157;51.036;17.058;2022-07-29T14:32:58;9.18;;;2.35;;
68310;SDS011;55157;51.036;17.058;2022-07-29T14:35:25;10.63;;;2.27;;
68310;SDS011;55157;51.036;17.058;2022-07-29T14:37:50;9.85;;;2.10;;
68310;SDS011;55157;51.036;17.058;2022-07-29T14:40:15;7.57;;;1.60;;